logo
Search for airport 
image banner adimage banner adimage banner ad
image banner ad

MTPP - Port-Au-Prince/International

Located in Port Au Prince, Haiti

ICAO - MTPP, IATA - PAP

Data provided by Airmate  

General information

Coordinates: N18°34'48" W72°17'33"
Elevation is 122 feet MSL.
 
View others Airports in Ouest Department

Operational data

Special qualification required
Current time UTC:
Current local time:
Weather
METAR: MTPP 241100Z 13011KT 9000 NSC 27/22 Q1017 A3005
View NOTAMs / SUP AIP / TFR affecting this airport [VIEW]
Communications frequencies: [VIEW]

Runways:

RWY identifierQFULength (ft)Width (ft)SurfaceLDA (ft)
1087°10039148ASP
28267°10039148ASP

Airport contact information

Address: Port Au Prince Haiti

Satellite view of MTPP